sensor_id;sensor_type;location;lat;lon;timestamp;temperature;humidity
36924;DHT22;22841;50.252;18.688;2023-10-09T00:01:44;7.20;99.90
36924;DHT22;22841;50.252;18.688;2023-10-09T00:04:10;7.20;99.90
36924;DHT22;22841;50.252;18.688;2023-10-09T00:06:37;7.10;99.90
36924;DHT22;22841;50.252;18.688;2023-10-09T00:09:04;7.10;99.90
36924;DHT22;22841;50.252;18.688;2023-10-09T00:11:49;7.10;99.90
36924;DHT22;22841;50.252;18.688;2023-10-09T00:14:19;6.90;99.90
36924;DHT22;22841;50.252;18.688;2023-10-09T00:16:46;7.00;99.90
36924;DHT22;22841;50.252;18.688;2023-10-09T00:19:15;7.00;99.90
36924;DHT22;22841;50.252;18.688;2023-10-09T00:21:41;7.00;99.90
36924;DHT22;22841;50.252;18.688;2023-10-09T00:24:08;6.90;99.90
36924;DHT22;22841;50.252;18.688;2023-10-09T00:26:45;6.90;99.90
36924;DHT22;22841;50.252;18.688;2023-10-09T00:29:12;6.90;99.90
36924;DHT22;22841;50.252;18.688;2023-10-09T00:31:54;6.90;99.90
36924;DHT22;22841;50.252;18.688;2023-10-09T00:34:39;6.80;99.90
36924;DHT22;22841;50.252;18.688;2023-10-09T00:37:08;6.80;99.90
36924;DHT22;22841;50.252;18.688;2023-10-09T00:39:52;6.80;99.90
36924;DHT22;22841;50.252;18.688;2023-10-09T00:42:24;6.70;99.90
36924;DHT22;22841;50.252;18.688;2023-10-09T00:45:02;6.70;99.90
36924;DHT22;22841;50.252;18.688;2023-10-09T00:47:31;6.50;99.90
36924;DHT22;22841;50.252;18.688;2023-10-09T00:50:08;6.50;99.90
36924;DHT22;22841;50.252;18.688;2023-10-09T00:52:52;6.30;99.90
36924;DHT22;22841;50.252;18.688;2023-10-09T00:55:27;6.40;99.90
36924;DHT22;22841;50.252;18.688;2023-10-09T00:58:02;6.50;99.90
36924;DHT22;22841;50.252;18.688;2023-10-09T01:00:31;6.50;99.90
36924;DHT22;22841;50.252;18.688;2023-10-09T01:03:02;6.50;99.90
36924;DHT22;22841;50.252;18.688;2023-10-09T01:05:45;6.60;99.90
36924;DHT22;22841;50.252;18.688;2023-10-09T01:08:25;6.60;99.90
36924;DHT22;22841;50.252;18.688;2023-10-09T01:11:13;6.60;99.90
36924;DHT22;22841;50.252;18.688;2023-10-09T01:13:48;6.60;99.90
36924;DHT22;22841;50.252;18.688;2023-10-09T01:16:15;6.60;99.90
36924;DHT22;22841;50.252;18.688;2023-10-09T01:18:47;6.50;99.90
36924;DHT22;22841;50.252;18.688;2023-10-09T01:21:16;6.50;99.90
36924;DHT22;22841;50.252;18.688;2023-10-09T01:23:44;6.50;99.90
36924;DHT22;22841;50.252;18.688;2023-10-09T01:26:39;6.60;99.90
36924;DHT22;22841;50.252;18.688;2023-10-09T01:29:09;6.50;99.90
36924;DHT22;22841;50.252;18.688;2023-10-09T01:31:41;6.60;99.90
36924;DHT22;22841;50.252;18.688;2023-10-09T01:34:39;6.50;99.90
36924;DHT22;22841;50.252;18.688;2023-10-09T01:37:05;6.60;99.90
36924;DHT22;22841;50.252;18.688;2023-10-09T01:39:39;6.60;99.90
36924;DHT22;22841;50.252;18.688;2023-10-09T01:42:09;6.40;99.90
36924;DHT22;22841;50.252;18.688;2023-10-09T01:44:36;6.40;99.90
36924;DHT22;22841;50.252;18.688;2023-10-09T01:47:09;6.40;99.90
36924;DHT22;22841;50.252;18.688;2023-10-09T01:49:40;6.30;99.90
36924;DHT22;22841;50.252;18.688;2023-10-09T01:52:10;6.30;99.90
36924;DHT22;22841;50.252;18.688;2023-10-09T01:54:44;6.30;99.90
36924;DHT22;22841;50.252;18.688;2023-10-09T01:57:18;6.30;99.90
36924;DHT22;22841;50.252;18.688;2023-10-09T01:59:49;6.40;99.90
36924;DHT22;22841;50.252;18.688;2023-10-09T02:02:16;6.50;99.90
36924;DHT22;22841;50.252;18.688;2023-10-09T02:04:53;6.50;99.90
36924;DHT22;22841;50.252;18.688;2023-10-09T02:07:20;6.50;99.90
36924;DHT22;22841;50.252;18.688;2023-10-09T02:09:55;6.40;99.90
36924;DHT22;22841;50.252;18.688;2023-10-09T02:12:22;6.50;99.90
36924;DHT22;22841;50.252;18.688;2023-10-09T02:14:50;6.50;99.90
36924;DHT22;22841;50.252;18.688;2023-10-09T02:17:19;6.50;99.90
36924;DHT22;22841;50.252;18.688;2023-10-09T02:19:46;6.60;99.90
36924;DHT22;22841;50.252;18.688;2023-10-09T02:22:15;6.70;99.90
36924;DHT22;22841;50.252;18.688;2023-10-09T02:24:44;6.60;99.90
36924;DHT22;22841;50.252;18.688;2023-10-09T02:27:24;6.60;99.90
36924;DHT22;22841;50.252;18.688;2023-10-09T02:30:12;6.70;99.90
36924;DHT22;22841;50.252;18.688;2023-10-09T02:32:42;6.60;99.90
36924;DHT22;22841;50.252;18.688;2023-10-09T02:35:11;6.70;99.90
36924;DHT22;22841;50.252;18.688;2023-10-09T02:38:02;6.60;99.90
36924;DHT22;22841;50.252;18.688;2023-10-09T02:40:33;6.50;99.90
36924;DHT22;22841;50.252;18.688;2023-10-09T02:43:08;6.50;99.90
36924;DHT22;22841;50.252;18.688;2023-10-09T02:45:43;6.50;99.90
36924;DHT22;22841;50.252;18.688;2023-10-09T02:48:17;6.60;99.90
36924;DHT22;22841;50.252;18.688;2023-10-09T02:50:46;6.70;99.90
36924;DHT22;22841;50.252;18.688;2023-10-09T02:53:12;6.70;99.90
36924;DHT22;22841;50.252;18.688;2023-10-09T02:55:46;6.60;99.90
36924;DHT22;22841;50.252;18.688;2023-10-09T02:58:30;6.70;99.90
36924;DHT22;22841;50.252;18.688;2023-10-09T03:01:02;6.70;99.90
36924;DHT22;22841;50.252;18.688;2023-10-09T03:03:28;6.70;99.90
36924;DHT22;22841;50.252;18.688;2023-10-09T03:05:55;6.70;99.90
36924;DHT22;22841;50.252;18.688;2023-10-09T03:08:21;6.70;99.90
36924;DHT22;22841;50.252;18.688;2023-10-09T03:10:47;6.70;99.90
36924;DHT22;22841;50.252;18.688;2023-10-09T03:13:13;6.70;99.90
36924;DHT22;22841;50.252;18.688;2023-10-09T03:15:46;6.70;99.90
36924;DHT22;22841;50.252;18.688;2023-10-09T03:18:14;6.80;99.90
36924;DHT22;22841;50.252;18.688;2023-10-09T03:20:40;6.70;99.90
36924;DHT22;22841;50.252;18.688;2023-10-09T03:23:07;6.80;99.90
36924;DHT22;22841;50.252;18.688;2023-10-09T03:25:35;6.90;99.90
36924;DHT22;22841;50.252;18.688;2023-10-09T03:28:03;6.80;99.90
36924;DHT22;22841;50.252;18.688;2023-10-09T03:30:30;6.90;99.90
36924;DHT22;22841;50.252;18.688;2023-10-09T03:32:58;6.90;99.90
36924;DHT22;22841;50.252;18.688;2023-10-09T03:35:26;6.90;99.90
36924;DHT22;22841;50.252;18.688;2023-10-09T03:37:59;6.90;99.90
36924;DHT22;22841;50.252;18.688;2023-10-09T03:40:28;6.80;99.90
36924;DHT22;22841;50.252;18.688;2023-10-09T03:42:54;6.80;99.90
36924;DHT22;22841;50.252;18.688;2023-10-09T03:45:20;6.80;99.90
36924;DHT22;22841;50.252;18.688;2023-10-09T03:47:57;6.90;99.90
36924;DHT22;22841;50.252;18.688;2023-10-09T03:50:28;6.90;99.90
36924;DHT22;22841;50.252;18.688;2023-10-09T03:53:04;6.90;99.90
36924;DHT22;22841;50.252;18.688;2023-10-09T03:55:36;6.90;99.90
36924;DHT22;22841;50.252;18.688;2023-10-09T03:58:06;7.00;99.90
36924;DHT22;22841;50.252;18.688;2023-10-09T04:00:33;6.90;99.90
36924;DHT22;22841;50.252;18.688;2023-10-09T04:03:10;6.90;99.90
36924;DHT22;22841;50.252;18.688;2023-10-09T04:05:37;6.90;99.90
36924;DHT22;22841;50.252;18.688;2023-10-09T04:08:08;6.90;99.90
36924;DHT22;22841;50.252;18.688;2023-10-09T04:10:42;6.90;99.90
36924;DHT22;22841;50.252;18.688;2023-10-09T04:13:18;6.90;99.90
36924;DHT22;22841;50.252;18.688;2023-10-09T04:15:50;6.90;99.90
36924;DHT22;22841;50.252;18.688;2023-10-09T04:18:18;7.00;99.90
36924;DHT22;22841;50.252;18.688;2023-10-09T04:20:44;7.00;99.90
36924;DHT22;22841;50.252;18.688;2023-10-09T04:23:28;7.00;99.90
36924;DHT22;22841;50.252;18.688;2023-10-09T04:26:01;7.00;99.90
36924;DHT22;22841;50.252;18.688;2023-10-09T04:28:37;7.00;99.90
36924;DHT22;22841;50.252;18.688;2023-10-09T04:31:03;7.00;99.90
36924;DHT22;22841;50.252;18.688;2023-10-09T04:33:32;6.90;99.90
36924;DHT22;22841;50.252;18.688;2023-10-09T04:36:05;7.00;99.90
36924;DHT22;22841;50.252;18.688;2023-10-09T04:38:51;7.00;99.90
36924;DHT22;22841;50.252;18.688;2023-10-09T04:41:30;7.00;99.90
36924;DHT22;22841;50.252;18.688;2023-10-09T04:44:18;7.00;99.90
36924;DHT22;22841;50.252;18.688;2023-10-09T04:46:50;7.00;99.90
36924;DHT22;22841;50.252;18.688;2023-10-09T04:49:36;7.00;99.90
36924;DHT22;22841;50.252;18.688;2023-10-09T04:52:18;7.10;99.90
36924;DHT22;22841;50.252;18.688;2023-10-09T04:54:45;7.00;99.90
36924;DHT22;22841;50.252;18.688;2023-10-09T04:57:30;7.00;99.90
36924;DHT22;22841;50.252;18.688;2023-10-09T05:00:07;7.00;99.90
36924;DHT22;22841;50.252;18.688;2023-10-09T05:02:49;7.00;99.90
36924;DHT22;22841;50.252;18.688;2023-10-09T05:05:26;7.00;99.90
36924;DHT22;22841;50.252;18.688;2023-10-09T05:11:03;7.00;99.90
36924;DHT22;22841;50.252;18.688;2023-10-09T05:13:33;6.90;99.90
36924;DHT22;22841;50.252;18.688;2023-10-09T05:16:15;6.90;99.90
36924;DHT22;22841;50.252;18.688;2023-10-09T05:18:48;6.90;99.90
36924;DHT22;22841;50.252;18.688;2023-10-09T05:21:39;6.90;99.90
36924;DHT22;22841;50.252;18.688;2023-10-09T05:24:08;7.00;99.90
36924;DHT22;22841;50.252;18.688;2023-10-09T05:26:38;6.90;99.90
36924;DHT22;22841;50.252;18.688;2023-10-09T05:29:14;6.90;99.90
36924;DHT22;22841;50.252;18.688;2023-10-09T05:31:48;6.90;99.90
36924;DHT22;22841;50.252;18.688;2023-10-09T05:34:29;6.90;99.90
36924;DHT22;22841;50.252;18.688;2023-10-09T05:37:14;7.00;99.90
36924;DHT22;22841;50.252;18.688;2023-10-09T05:39:46;7.00;99.90
36924;DHT22;22841;50.252;18.688;2023-10-09T05:42:29;6.90;99.90
36924;DHT22;22841;50.252;18.688;2023-10-09T05:47:47;7.00;99.90
36924;DHT22;22841;50.252;18.688;2023-10-09T05:50:26;6.90;99.90
36924;DHT22;22841;50.252;18.688;2023-10-09T05:52:53;7.00;99.90
36924;DHT22;22841;50.252;18.688;2023-10-09T05:55:21;7.00;99.90
36924;DHT22;22841;50.252;18.688;2023-10-09T05:57:56;7.00;99.90
36924;DHT22;22841;50.252;18.688;2023-10-09T06:00:41;7.00;99.90
36924;DHT22;22841;50.252;18.688;2023-10-09T06:03:25;7.00;99.90
36924;DHT22;22841;50.252;18.688;2023-10-09T06:05:55;7.00;99.90
36924;DHT22;22841;50.252;18.688;2023-10-09T06:08:22;7.00;99.90
36924;DHT22;22841;50.252;18.688;2023-10-09T06:11:08;7.00;99.90
36924;DHT22;22841;50.252;18.688;2023-10-09T06:13:57;7.10;99.90
36924;DHT22;22841;50.252;18.688;2023-10-09T06:16:30;7.20;99.90
36924;DHT22;22841;50.252;18.688;2023-10-09T06:19:10;7.20;99.90
36924;DHT22;22841;50.252;18.688;2023-10-09T06:21:57;7.20;99.90
36924;DHT22;22841;50.252;18.688;2023-10-09T06:24:30;7.20;99.90
36924;DHT22;22841;50.252;18.688;2023-10-09T06:27:00;7.10;99.90
36924;DHT22;22841;50.252;18.688;2023-10-09T06:29:26;7.20;99.90
36924;DHT22;22841;50.252;18.688;2023-10-09T06:32:06;7.20;99.90
36924;DHT22;22841;50.252;18.688;2023-10-09T06:37:23;7.30;99.90
36924;DHT22;22841;50.252;18.688;2023-10-09T06:39:50;7.30;99.90
36924;DHT22;22841;50.252;18.688;2023-10-09T06:42:37;7.30;99.90
36924;DHT22;22841;50.252;18.688;2023-10-09T06:45:08;7.30;99.90
36924;DHT22;22841;50.252;18.688;2023-10-09T06:47:34;7.20;99.90
36924;DHT22;22841;50.252;18.688;2023-10-09T06:50:16;7.20;99.90
36924;DHT22;22841;50.252;18.688;2023-10-09T06:52:52;7.20;99.90
36924;DHT22;22841;50.252;18.688;2023-10-09T06:55:36;7.10;99.90
36924;DHT22;22841;50.252;18.688;2023-10-09T06:58:18;7.00;99.90
36924;DHT22;22841;50.252;18.688;2023-10-09T07:00:55;7.10;99.90
36924;DHT22;22841;50.252;18.688;2023-10-09T07:03:25;7.10;99.90
36924;DHT22;22841;50.252;18.688;2023-10-09T07:06:08;7.20;99.90
36924;DHT22;22841;50.252;18.688;2023-10-09T07:08:53;7.20;99.90
36924;DHT22;22841;50.252;18.688;2023-10-09T07:11:50;7.30;99.90
36924;DHT22;22841;50.252;18.688;2023-10-09T07:14:18;7.30;99.90
36924;DHT22;22841;50.252;18.688;2023-10-09T07:19:50;7.30;99.90
36924;DHT22;22841;50.252;18.688;2023-10-09T07:22:17;7.30;99.90
36924;DHT22;22841;50.252;18.688;2023-10-09T07:27:25;7.20;99.90
36924;DHT22;22841;50.252;18.688;2023-10-09T07:30:12;7.10;99.90
36924;DHT22;22841;50.252;18.688;2023-10-09T07:33:06;7.10;99.90
36924;DHT22;22841;50.252;18.688;2023-10-09T07:35:53;7.10;99.90
36924;DHT22;22841;50.252;18.688;2023-10-09T07:38:24;7.00;99.90
36924;DHT22;22841;50.252;18.688;2023-10-09T07:41:02;7.10;99.90
36924;DHT22;22841;50.252;18.688;2023-10-09T07:43:29;7.10;99.90
36924;DHT22;22841;50.252;18.688;2023-10-09T07:46:06;7.20;99.90
36924;DHT22;22841;50.252;18.688;2023-10-09T07:48:35;7.20;99.90
36924;DHT22;22841;50.252;18.688;2023-10-09T07:51:19;7.30;99.90
36924;DHT22;22841;50.252;18.688;2023-10-09T07:53:52;7.30;99.90
36924;DHT22;22841;50.252;18.688;2023-10-09T07:59:05;7.40;99.90
36924;DHT22;22841;50.252;18.688;2023-10-09T08:04:04;7.20;99.90
36924;DHT22;22841;50.252;18.688;2023-10-09T08:06:53;7.20;99.90
36924;DHT22;22841;50.252;18.688;2023-10-09T08:09:23;7.20;99.90
36924;DHT22;22841;50.252;18.688;2023-10-09T08:12:09;7.30;99.90
36924;DHT22;22841;50.252;18.688;2023-10-09T08:14:56;7.30;99.90
36924;DHT22;22841;50.252;18.688;2023-10-09T08:17:38;7.30;99.90
36924;DHT22;22841;50.252;18.688;2023-10-09T08:20:05;7.40;99.90
36924;DHT22;22841;50.252;18.688;2023-10-09T08:22:37;7.40;99.90
36924;DHT22;22841;50.252;18.688;2023-10-09T08:25:12;7.40;99.90
36924;DHT22;22841;50.252;18.688;2023-10-09T08:28:14;7.50;99.90
36924;DHT22;22841;50.252;18.688;2023-10-09T08:30:40;7.60;99.90
36924;DHT22;22841;50.252;18.688;2023-10-09T08:33:15;7.70;99.90
36924;DHT22;22841;50.252;18.688;2023-10-09T08:35:56;7.60;99.90
36924;DHT22;22841;50.252;18.688;2023-10-09T08:38:30;7.70;99.90
36924;DHT22;22841;50.252;18.688;2023-10-09T08:41:07;7.70;99.90
36924;DHT22;22841;50.252;18.688;2023-10-09T08:43:37;7.80;99.90
36924;DHT22;22841;50.252;18.688;2023-10-09T08:46:05;7.80;99.90
36924;DHT22;22841;50.252;18.688;2023-10-09T08:48:31;7.80;99.90
36924;DHT22;22841;50.252;18.688;2023-10-09T08:50:58;7.70;99.90
36924;DHT22;22841;50.252;18.688;2023-10-09T08:53:26;7.60;99.90
36924;DHT22;22841;50.252;18.688;2023-10-09T08:55:54;7.70;99.90
36924;DHT22;22841;50.252;18.688;2023-10-09T08:58:21;7.70;99.90
36924;DHT22;22841;50.252;18.688;2023-10-09T09:00:54;7.60;99.90
36924;DHT22;22841;50.252;18.688;2023-10-09T09:03:24;7.60;99.90
36924;DHT22;22841;50.252;18.688;2023-10-09T09:06:01;7.60;99.90
36924;DHT22;22841;50.252;18.688;2023-10-09T09:08:29;7.70;99.90
36924;DHT22;22841;50.252;18.688;2023-10-09T09:11:08;7.70;99.90
36924;DHT22;22841;50.252;18.688;2023-10-09T09:13:39;7.70;99.90
36924;DHT22;22841;50.252;18.688;2023-10-09T09:16:23;7.70;99.90
36924;DHT22;22841;50.252;18.688;2023-10-09T09:19:00;7.60;99.90
36924;DHT22;22841;50.252;18.688;2023-10-09T09:21:30;7.60;99.90
36924;DHT22;22841;50.252;18.688;2023-10-09T09:24:01;7.60;99.90
36924;DHT22;22841;50.252;18.688;2023-10-09T09:26:37;7.60;99.90
36924;DHT22;22841;50.252;18.688;2023-10-09T09:29:14;7.60;99.90
36924;DHT22;22841;50.252;18.688;2023-10-09T09:31:55;7.60;99.90
36924;DHT22;22841;50.252;18.688;2023-10-09T09:34:23;7.60;99.90
36924;DHT22;22841;50.252;18.688;2023-10-09T09:36:57;7.60;99.90
36924;DHT22;22841;50.252;18.688;2023-10-09T09:39:27;7.60;99.90
36924;DHT22;22841;50.252;18.688;2023-10-09T09:42:00;7.60;99.90
36924;DHT22;22841;50.252;18.688;2023-10-09T09:44:34;7.60;99.90
36924;DHT22;22841;50.252;18.688;2023-10-09T09:47:12;7.60;99.90
36924;DHT22;22841;50.252;18.688;2023-10-09T09:49:42;7.60;99.90
36924;DHT22;22841;50.252;18.688;2023-10-09T09:52:09;7.60;99.90
36924;DHT22;22841;50.252;18.688;2023-10-09T09:54:39;7.60;99.90
36924;DHT22;22841;50.252;18.688;2023-10-09T09:57:07;7.60;99.90
36924;DHT22;22841;50.252;18.688;2023-10-09T09:59:41;7.60;99.90
36924;DHT22;22841;50.252;18.688;2023-10-09T10:02:12;7.70;99.90
36924;DHT22;22841;50.252;18.688;2023-10-09T10:04:47;7.70;99.90
36924;DHT22;22841;50.252;18.688;2023-10-09T10:07:16;7.70;99.90
36924;DHT22;22841;50.252;18.688;2023-10-09T10:09:47;7.70;99.90
36924;DHT22;22841;50.252;18.688;2023-10-09T10:12:48;7.70;99.90
36924;DHT22;22841;50.252;18.688;2023-10-09T10:18:30;7.60;99.90
36924;DHT22;22841;50.252;18.688;2023-10-09T10:21:11;7.60;99.90
36924;DHT22;22841;50.252;18.688;2023-10-09T10:24:01;7.60;99.90
36924;DHT22;22841;50.252;18.688;2023-10-09T10:26:36;7.60;99.90
36924;DHT22;22841;50.252;18.688;2023-10-09T10:29:19;7.60;99.90
36924;DHT22;22841;50.252;18.688;2023-10-09T10:31:58;7.60;99.90
36924;DHT22;22841;50.252;18.688;2023-10-09T10:37:20;7.50;99.90
36924;DHT22;22841;50.252;18.688;2023-10-09T10:39:51;7.50;99.90
36924;DHT22;22841;50.252;18.688;2023-10-09T10:42:24;7.60;99.90
36924;DHT22;22841;50.252;18.688;2023-10-09T10:45:03;7.60;99.90
36924;DHT22;22841;50.252;18.688;2023-10-09T10:47:49;7.60;99.90
36924;DHT22;22841;50.252;18.688;2023-10-09T10:50:17;7.60;99.90
36924;DHT22;22841;50.252;18.688;2023-10-09T10:53:13;7.60;99.90
36924;DHT22;22841;50.252;18.688;2023-10-09T10:58:53;7.80;99.90
36924;DHT22;22841;50.252;18.688;2023-10-09T11:01:40;7.80;99.90
36924;DHT22;22841;50.252;18.688;2023-10-09T11:04:26;7.80;99.90
36924;DHT22;22841;50.252;18.688;2023-10-09T11:06:56;7.80;99.90
36924;DHT22;22841;50.252;18.688;2023-10-09T11:09:26;7.70;99.90
36924;DHT22;22841;50.252;18.688;2023-10-09T11:12:05;7.70;99.90
36924;DHT22;22841;50.252;18.688;2023-10-09T11:15:01;7.70;99.90
36924;DHT22;22841;50.252;18.688;2023-10-09T11:17:59;7.70;99.90
36924;DHT22;22841;50.252;18.688;2023-10-09T11:20:34;7.70;99.90
36924;DHT22;22841;50.252;18.688;2023-10-09T11:23:02;7.70;99.90
36924;DHT22;22841;50.252;18.688;2023-10-09T11:25:45;7.70;99.90
36924;DHT22;22841;50.252;18.688;2023-10-09T11:28:22;7.70;99.90
36924;DHT22;22841;50.252;18.688;2023-10-09T11:31:14;7.70;99.90
36924;DHT22;22841;50.252;18.688;2023-10-09T11:33:46;7.70;99.90
36924;DHT22;22841;50.252;18.688;2023-10-09T11:36:16;7.70;99.90
36924;DHT22;22841;50.252;18.688;2023-10-09T11:38:42;7.70;99.90
36924;DHT22;22841;50.252;18.688;2023-10-09T11:41:15;7.70;99.90
36924;DHT22;22841;50.252;18.688;2023-10-09T11:43:52;7.70;99.90
36924;DHT22;22841;50.252;18.688;2023-10-09T11:46:19;7.60;99.90
36924;DHT22;22841;50.252;18.688;2023-10-09T11:49:08;7.60;99.90
36924;DHT22;22841;50.252;18.688;2023-10-09T11:51:43;7.80;99.90
36924;DHT22;22841;50.252;18.688;2023-10-09T11:54:30;7.80;99.90
36924;DHT22;22841;50.252;18.688;2023-10-09T11:56:57;7.80;99.90
36924;DHT22;22841;50.252;18.688;2023-10-09T11:59:35;7.70;99.90
36924;DHT22;22841;50.252;18.688;2023-10-09T12:02:08;7.70;99.90
36924;DHT22;22841;50.252;18.688;2023-10-09T12:04:38;7.60;99.90
36924;DHT22;22841;50.252;18.688;2023-10-09T12:07:10;7.70;99.90
36924;DHT22;22841;50.252;18.688;2023-10-09T12:09:40;7.80;99.90
36924;DHT22;22841;50.252;18.688;2023-10-09T12:12:08;7.80;99.90
36924;DHT22;22841;50.252;18.688;2023-10-09T12:14:37;7.80;99.90
36924;DHT22;22841;50.252;18.688;2023-10-09T12:17:07;7.80;99.90
36924;DHT22;22841;50.252;18.688;2023-10-09T12:19:38;7.80;99.90
36924;DHT22;22841;50.252;18.688;2023-10-09T12:22:07;7.90;99.90
36924;DHT22;22841;50.252;18.688;2023-10-09T12:24:36;7.80;99.90
36924;DHT22;22841;50.252;18.688;2023-10-09T12:27:03;7.70;99.90
36924;DHT22;22841;50.252;18.688;2023-10-09T12:29:36;7.70;99.90
36924;DHT22;22841;50.252;18.688;2023-10-09T12:32:02;7.70;99.90
36924;DHT22;22841;50.252;18.688;2023-10-09T12:34:29;7.70;99.90
36924;DHT22;22841;50.252;18.688;2023-10-09T12:36:58;7.70;99.90
36924;DHT22;22841;50.252;18.688;2023-10-09T12:39:27;7.70;99.90
36924;DHT22;22841;50.252;18.688;2023-10-09T12:42:00;7.60;99.90
36924;DHT22;22841;50.252;18.688;2023-10-09T12:44:35;7.70;99.90
36924;DHT22;22841;50.252;18.688;2023-10-09T12:47:09;7.80;99.90
36924;DHT22;22841;50.252;18.688;2023-10-09T12:49:37;7.90;99.90
36924;DHT22;22841;50.252;18.688;2023-10-09T12:52:09;7.80;99.90
36924;DHT22;22841;50.252;18.688;2023-10-09T12:54:42;7.80;99.90
36924;DHT22;22841;50.252;18.688;2023-10-09T12:57:09;7.90;99.90
36924;DHT22;22841;50.252;18.688;2023-10-09T12:59:40;7.90;99.90
36924;DHT22;22841;50.252;18.688;2023-10-09T13:02:15;7.90;99.90
36924;DHT22;22841;50.252;18.688;2023-10-09T13:04:55;8.00;99.90
36924;DHT22;22841;50.252;18.688;2023-10-09T13:07:21;8.00;99.90
36924;DHT22;22841;50.252;18.688;2023-10-09T13:09:48;8.00;99.90
36924;DHT22;22841;50.252;18.688;2023-10-09T13:12:34;8.00;99.90
36924;DHT22;22841;50.252;18.688;2023-10-09T13:15:05;8.10;99.90
36924;DHT22;22841;50.252;18.688;2023-10-09T13:17:38;8.00;99.90
36924;DHT22;22841;50.252;18.688;2023-10-09T13:20:05;8.00;99.90
36924;DHT22;22841;50.252;18.688;2023-10-09T13:22:42;8.00;99.90
36924;DHT22;22841;50.252;18.688;2023-10-09T13:25:10;8.00;99.90
36924;DHT22;22841;50.252;18.688;2023-10-09T13:27:42;8.00;99.90
36924;DHT22;22841;50.252;18.688;2023-10-09T13:30:14;8.10;99.90
36924;DHT22;22841;50.252;18.688;2023-10-09T13:32:50;8.00;99.90
36924;DHT22;22841;50.252;18.688;2023-10-09T13:35:17;8.00;99.90
36924;DHT22;22841;50.252;18.688;2023-10-09T13:37:45;8.00;99.90
36924;DHT22;22841;50.252;18.688;2023-10-09T13:40:21;8.00;99.90
36924;DHT22;22841;50.252;18.688;2023-10-09T13:42:54;8.00;99.90
36924;DHT22;22841;50.252;18.688;2023-10-09T13:45:30;8.10;99.90
36924;DHT22;22841;50.252;18.688;2023-10-09T13:47:59;8.00;99.90
36924;DHT22;22841;50.252;18.688;2023-10-09T13:50:30;8.00;99.90
36924;DHT22;22841;50.252;18.688;2023-10-09T13:52:59;8.10;99.90
36924;DHT22;22841;50.252;18.688;2023-10-09T13:55:25;8.00;99.90
36924;DHT22;22841;50.252;18.688;2023-10-09T13:58:00;8.10;99.90
36924;DHT22;22841;50.252;18.688;2023-10-09T14:00:26;8.10;99.90
36924;DHT22;22841;50.252;18.688;2023-10-09T14:03:08;8.20;99.90
36924;DHT22;22841;50.252;18.688;2023-10-09T14:05:39;8.20;99.90
36924;DHT22;22841;50.252;18.688;2023-10-09T14:08:19;8.20;99.90
36924;DHT22;22841;50.252;18.688;2023-10-09T14:10:48;8.20;99.90
36924;DHT22;22841;50.252;18.688;2023-10-09T14:13:15;8.20;99.90
36924;DHT22;22841;50.252;18.688;2023-10-09T14:15:43;8.30;99.90
36924;DHT22;22841;50.252;18.688;2023-10-09T14:18:12;8.30;99.90
36924;DHT22;22841;50.252;18.688;2023-10-09T14:20:38;8.30;99.90
36924;DHT22;22841;50.252;18.688;2023-10-09T14:23:07;8.30;99.90
36924;DHT22;22841;50.252;18.688;2023-10-09T14:25:35;8.30;99.90
36924;DHT22;22841;50.252;18.688;2023-10-09T14:28:09;8.20;99.90
36924;DHT22;22841;50.252;18.688;2023-10-09T14:30:36;8.30;99.90
36924;DHT22;22841;50.252;18.688;2023-10-09T14:33:08;8.30;99.90
36924;DHT22;22841;50.252;18.688;2023-10-09T14:35:42;8.20;99.90
36924;DHT22;22841;50.252;18.688;2023-10-09T14:38:08;8.20;99.90
36924;DHT22;22841;50.252;18.688;2023-10-09T14:40:56;8.30;99.90
36924;DHT22;22841;50.252;18.688;2023-10-09T14:43:25;8.30;99.90
36924;DHT22;22841;50.252;18.688;2023-10-09T14:45:59;8.30;99.90
36924;DHT22;22841;50.252;18.688;2023-10-09T14:48:25;8.30;99.90
36924;DHT22;22841;50.252;18.688;2023-10-09T14:50:55;8.30;99.90
36924;DHT22;22841;50.252;18.688;2023-10-09T14:53:30;8.30;99.90
36924;DHT22;22841;50.252;18.688;2023-10-09T14:55:57;8.30;99.90
36924;DHT22;22841;50.252;18.688;2023-10-09T14:58:23;8.40;99.90
36924;DHT22;22841;50.252;18.688;2023-10-09T15:00:54;8.40;99.90
36924;DHT22;22841;50.252;18.688;2023-10-09T15:03:20;8.30;99.90
36924;DHT22;22841;50.252;18.688;2023-10-09T15:05:48;8.30;99.90
36924;DHT22;22841;50.252;18.688;2023-10-09T15:08:14;8.30;99.90
36924;DHT22;22841;50.252;18.688;2023-10-09T15:10:46;8.40;99.90
36924;DHT22;22841;50.252;18.688;2023-10-09T15:13:17;8.30;99.90
36924;DHT22;22841;50.252;18.688;2023-10-09T15:15:44;8.40;99.90
36924;DHT22;22841;50.252;18.688;2023-10-09T15:18:11;8.30;99.90
36924;DHT22;22841;50.252;18.688;2023-10-09T15:20:40;8.30;99.90
36924;DHT22;22841;50.252;18.688;2023-10-09T15:23:07;8.30;99.90
36924;DHT22;22841;50.252;18.688;2023-10-09T15:25:34;8.30;99.90
36924;DHT22;22841;50.252;18.688;2023-10-09T15:28:01;8.40;99.90
36924;DHT22;22841;50.252;18.688;2023-10-09T15:30:29;8.50;99.90
36924;DHT22;22841;50.252;18.688;2023-10-09T15:32:57;8.50;99.90
36924;DHT22;22841;50.252;18.688;2023-10-09T15:35:23;8.50;99.90
36924;DHT22;22841;50.252;18.688;2023-10-09T15:37:50;8.50;99.90
36924;DHT22;22841;50.252;18.688;2023-10-09T15:40:18;8.60;99.90
36924;DHT22;22841;50.252;18.688;2023-10-09T15:42:50;8.60;99.90
36924;DHT22;22841;50.252;18.688;2023-10-09T15:45:17;8.60;99.90
36924;DHT22;22841;50.252;18.688;2023-10-09T15:47:43;8.60;99.90
36924;DHT22;22841;50.252;18.688;2023-10-09T15:50:11;8.60;99.90
36924;DHT22;22841;50.252;18.688;2023-10-09T15:52:40;8.60;99.90
36924;DHT22;22841;50.252;18.688;2023-10-09T15:55:07;8.60;99.90
36924;DHT22;22841;50.252;18.688;2023-10-09T15:57:40;8.60;99.90
36924;DHT22;22841;50.252;18.688;2023-10-09T16:00:07;8.60;99.90
36924;DHT22;22841;50.252;18.688;2023-10-09T16:02:49;8.70;99.90
36924;DHT22;22841;50.252;18.688;2023-10-09T16:05:19;8.70;99.90
36924;DHT22;22841;50.252;18.688;2023-10-09T16:07:45;8.70;99.90
36924;DHT22;22841;50.252;18.688;2023-10-09T16:10:11;8.70;99.90
36924;DHT22;22841;50.252;18.688;2023-10-09T16:12:39;8.70;99.90
36924;DHT22;22841;50.252;18.688;2023-10-09T16:15:07;8.70;99.90
36924;DHT22;22841;50.252;18.688;2023-10-09T16:17:34;8.70;99.90
36924;DHT22;22841;50.252;18.688;2023-10-09T16:20:01;8.70;99.90
36924;DHT22;22841;50.252;18.688;2023-10-09T16:22:27;8.70;99.90
36924;DHT22;22841;50.252;18.688;2023-10-09T16:24:59;8.70;99.90
36924;DHT22;22841;50.252;18.688;2023-10-09T16:27:27;8.70;99.90
36924;DHT22;22841;50.252;18.688;2023-10-09T16:29:54;8.70;99.90
36924;DHT22;22841;50.252;18.688;2023-10-09T16:32:20;8.70;99.90
36924;DHT22;22841;50.252;18.688;2023-10-09T16:34:50;8.70;99.90
36924;DHT22;22841;50.252;18.688;2023-10-09T16:37:17;8.70;99.90